Dera Bugti Weather



Dera Bugti's Current Weather

Temprature 25.516o clear sky

clear sky

Rain: 0 %

Min Temprature25.516o
Max Temprature25.516o
Humidity30
Wind Speed1.57 m/h
Sun Rise05:51:43
Sun Set18:52:19
Current Time: 21-Apr-2019 05:30:56
Lat/Lon: 29.03, 69.15




Dera Bugti's Geo Location



Dera Bugti's Weather Forecast

Time Overall Temp Min Temp Max Temp Humidity Wind Speed Rain
21-Apr-2019 (Sun)
08:00:00 clear sky 29.510 29.509 29.510 22 2 m/h 0 %
11:00:00 clear sky 32.950 32.950 32.950 17 2.49 m/h 0 %
14:00:00 clear sky 35.250 35.250 35.250 15 3.2 m/h 0 %
17:00:00 clear sky 35.850 35.850 35.850 13 3.31 m/h 0 %
20:00:00 clear sky 32.750 32.750 32.750 17 1.87 m/h 0 %
23:00:00 clear sky 30.300 30.300 30.300 22 0.9 m/h 0 %
22-Apr-2019 (Mon)
02:00:00 clear sky 28.470 28.470 28.470 25 1.12 m/h 0 %
05:00:00 clear sky 28.084 28.084 28.084 25 2.42 m/h 0 %
08:00:00 clear sky 31.196 31.196 31.196 21 1.08 m/h 0 %
11:00:00 clear sky 34.920 34.920 34.920 16 1.63 m/h 0 %
14:00:00 clear sky 37.315 37.315 37.315 12 3.38 m/h 0 %
17:00:00 clear sky 37.531 37.531 37.531 10 4.62 m/h 0 %
20:00:00 clear sky 33.850 33.850 33.850 15 1.48 m/h 0 %
23:00:00 clear sky 31.996 31.996 31.996 16 1.42 m/h 0 %
23-Apr-2019 (Tue)
02:00:00 scattered clouds 29.577 29.577 29.577 21 1.63 m/h 0 %
05:00:00 broken clouds 27.186 27.186 27.186 29 0.5 m/h 0 %
08:00:00 clear sky 31.157 31.157 31.157 23 2.24 m/h 0 %
11:00:00 clear sky 35.050 35.050 35.050 20 2.88 m/h 0 %
14:00:00 clear sky 38.350 38.350 38.350 12 5.64 m/h 0 %
17:00:00 scattered clouds 38.350 38.350 38.350 10 5.41 m/h 0 %
20:00:00 broken clouds 35.128 35.128 35.128 15 2.22 m/h 0 %
23:00:00 broken clouds 32.550 32.550 32.550 14 3.51 m/h 0 %
24-Apr-2019 (Wed)
02:00:00 broken clouds 30.082 30.082 30.082 23 2.58 m/h 0 %
05:00:00 broken clouds 28.054 28.054 28.054 34 1.39 m/h 0 %
08:00:00 broken clouds 30.250 30.250 30.250 32 1.86 m/h 0 %
11:00:00 broken clouds 34.109 34.109 34.109 23 0.26 m/h 0 %
14:00:00 clear sky 36.950 36.950 36.950 16 3.11 m/h 0 %
17:00:00 clear sky 37.450 37.450 37.450 14 5.23 m/h 0 %
20:00:00 scattered clouds 33.855 33.855 33.855 21 7.61 m/h 0 %
23:00:00 light rain 31.045 31.045 31.045 28 1.34 m/h 19 %
25-Apr-2019 (Thu)
02:00:00 light rain 28.350 28.350 28.350 37 2.25 m/h 256 %
05:00:00 few clouds 27.432 27.432 27.432 39 2.9 m/h 0 %
08:00:00 clear sky 29.020 29.020 29.020 34 3.23 m/h 0 %
11:00:00 clear sky 31.990 31.990 31.990 29 4.9 m/h 0 %
14:00:00 clear sky 34.050 34.050 34.050 25 3.66 m/h 0 %
17:00:00 clear sky 34.811 34.811 34.811 19 3.7 m/h 0 %
20:00:00 clear sky 33.125 33.125 33.125 22 2.15 m/h 0 %
23:00:00 clear sky 31.343 31.343 31.343 24 1.95 m/h 0 %
26-Apr-2019 (Fri)
02:00:00 clear sky 29.132 29.132 29.132 31 1 m/h 0 %
05:00:00 clear sky 27.766 27.766 27.766 34 0.41 m/h 0 %

Famous Cities (60)